createdAt,value
2023-04-20T00:01:27.568Z,81.80
2023-04-20T00:04:30.141Z,82.58
2023-04-20T00:07:32.289Z,83.59
2023-04-20T00:10:34.734Z,83.69
2023-04-20T00:13:36.807Z,84.49
2023-04-20T00:16:39.080Z,84.56
2023-04-20T00:19:41.534Z,85.82
2023-04-20T00:22:43.581Z,85.48
2023-04-20T00:25:45.738Z,85.97
2023-04-20T00:28:47.781Z,86.27
2023-04-20T00:31:49.897Z,86.25
2023-04-20T00:34:52.086Z,86.33
2023-04-20T00:37:54.106Z,86.39
2023-04-20T00:40:56.395Z,86.56
2023-04-20T00:43:58.497Z,87.02
2023-04-20T00:47:00.875Z,86.73
2023-04-20T00:50:03.357Z,86.69
2023-04-20T00:53:07.422Z,86.51
2023-04-20T00:56:09.708Z,86.92
2023-04-20T00:59:12.656Z,85.93
2023-04-20T01:02:14.864Z,86.04
2023-04-20T01:05:17.742Z,86.08
2023-04-20T01:08:19.761Z,86.13
2023-04-20T01:11:22.203Z,86.03
2023-04-20T01:14:24.377Z,86.22
2023-04-20T01:17:26.539Z,86.19
2023-04-20T01:20:28.675Z,86.03
2023-04-20T01:23:34.726Z,86.08
2023-04-20T01:26:39.136Z,85.68
2023-04-20T01:29:43.044Z,85.39
2023-04-20T01:32:45.649Z,84.95
2023-04-20T01:35:48.462Z,85.22
2023-04-20T01:38:51.444Z,85.61
2023-04-20T01:41:53.567Z,85.01
2023-04-20T01:44:55.703Z,85.42
2023-04-20T01:47:57.810Z,85.72
2023-04-20T01:51:01.452Z,85.12
2023-04-20T01:54:03.945Z,85.62
2023-04-20T01:57:06.117Z,85.52
2023-04-20T02:00:10.219Z,85.73
2023-04-20T02:03:19.261Z,85.64
2023-04-20T02:06:22.486Z,86.31
2023-04-20T02:09:24.751Z,86.10
2023-04-20T02:12:27.004Z,86.49
2023-04-20T02:15:29.251Z,86.97
2023-04-20T02:18:33.189Z,86.54
2023-04-20T02:21:35.614Z,86.55
2023-04-20T02:24:38.183Z,86.95
2023-04-20T02:27:40.401Z,86.72
2023-04-20T02:30:42.586Z,86.98
2023-04-20T02:33:48.185Z,85.97
2023-04-20T02:36:50.678Z,86.25
2023-04-20T02:39:52.788Z,85.45
2023-04-20T02:42:54.895Z,85.06
2023-04-20T02:45:57.413Z,85.25
2023-04-20T02:48:59.873Z,85.65
2023-04-20T02:52:03.109Z,85.59
2023-04-20T02:55:06.249Z,85.46
2023-04-20T02:58:08.351Z,85.73
2023-04-20T03:01:30.743Z,85.22
2023-04-20T03:04:40.004Z,85.72
2023-04-20T03:07:49.780Z,85.47
2023-04-20T03:10:52.023Z,84.93
2023-04-20T03:13:55.946Z,84.90
2023-04-20T03:16:58.606Z,85.14
2023-04-20T03:20:00.957Z,85.31
2023-04-20T03:23:03.520Z,84.45
2023-04-20T03:26:05.812Z,84.61
2023-04-20T03:29:26.313Z,84.95
2023-04-20T03:32:29.763Z,84.26
2023-04-20T03:35:33.626Z,84.54
2023-04-20T03:38:36.146Z,84.60
2023-04-20T03:41:38.303Z,84.67
2023-04-20T03:44:40.461Z,84.74
2023-04-20T03:47:43.405Z,84.90
2023-04-20T03:50:45.597Z,84.99
2023-04-20T03:53:47.739Z,84.61
2023-04-20T03:56:50.744Z,84.93
2023-04-20T03:59:53.689Z,84.77
2023-04-20T04:02:58.454Z,84.35
2023-04-20T04:06:04.036Z,84.56
2023-04-20T04:09:08.150Z,83.96
2023-04-20T04:12:10.727Z,83.84
2023-04-20T04:15:13.681Z,84.08
2023-04-20T04:18:24.455Z,83.79
2023-04-20T04:21:28.557Z,83.74
2023-04-20T04:24:39.179Z,84.07
2023-04-20T04:27:43.744Z,83.87
2023-04-20T04:30:47.543Z,84.36
2023-04-20T04:33:50.560Z,84.11
2023-04-20T04:37:04.274Z,84.25
2023-04-20T04:40:20.755Z,84.21
2023-04-20T04:43:25.953Z,84.29
2023-04-20T04:46:39.750Z,84.24
2023-04-20T04:49:42.856Z,84.13
2023-04-20T04:52:45.944Z,83.66
2023-04-20T04:55:48.712Z,83.40
2023-04-20T04:58:50.976Z,83.56
2023-04-20T05:01:53.122Z,83.60
2023-04-20T05:04:55.273Z,83.51
2023-04-20T05:07:57.429Z,83.51
2023-04-20T05:10:59.565Z,83.55
2023-04-20T05:14:02.844Z,83.43
2023-04-20T05:17:05.018Z,82.50
2023-04-20T05:20:08.894Z,83.13
2023-04-20T05:23:11.139Z,82.63
2023-04-20T05:26:14.026Z,82.63
2023-04-20T05:29:17.146Z,82.29
2023-04-20T05:32:19.425Z,82.75
2023-04-20T05:35:21.807Z,82.75
2023-04-20T05:38:24.942Z,82.86
2023-04-20T05:41:27.772Z,81.56
2023-04-20T05:44:30.145Z,82.17
2023-04-20T05:47:32.331Z,81.71
2023-04-20T05:50:34.548Z,81.71
2023-04-20T05:53:37.115Z,82.04
2023-04-20T05:56:39.267Z,81.74
2023-04-20T05:59:41.738Z,81.54
2023-04-20T06:02:44.426Z,81.52
2023-04-20T06:05:46.611Z,81.79
2023-04-20T06:08:48.865Z,80.93
2023-04-20T06:11:50.937Z,81.27
2023-04-20T06:14:53.024Z,81.53
2023-04-20T06:17:55.228Z,81.48
2023-04-20T06:20:57.381Z,81.76
2023-04-20T06:23:59.438Z,81.26
2023-04-20T06:27:02.891Z,81.27
2023-04-20T06:30:05.858Z,81.32
2023-04-20T06:33:09.141Z,80.95
2023-04-20T06:36:12.423Z,80.13
2023-04-20T06:39:17.724Z,80.79
2023-04-20T06:42:19.967Z,80.72
2023-04-20T06:45:22.353Z,81.32
2023-04-20T06:48:32.147Z,79.94
2023-04-20T06:51:35.093Z,80.37
2023-04-20T06:54:37.156Z,80.05
2023-04-20T06:57:39.696Z,80.46
2023-04-20T07:00:42.000Z,80.70
2023-04-20T07:03:44.250Z,80.04
2023-04-20T07:06:46.726Z,79.89
2023-04-20T07:09:48.837Z,79.55
2023-04-20T07:12:51.199Z,79.11
2023-04-20T07:15:53.439Z,79.36
2023-04-20T07:18:55.913Z,78.99
2023-04-20T07:21:58.163Z,79.10
2023-04-20T07:25:07.760Z,79.37
2023-04-20T07:28:09.976Z,78.37
2023-04-20T07:31:12.139Z,78.34
2023-04-20T07:34:14.499Z,77.85
2023-04-20T07:37:16.800Z,77.84
2023-04-20T07:40:18.973Z,77.50
2023-04-20T07:43:21.233Z,77.71
2023-04-20T07:46:23.884Z,76.88
2023-04-20T07:49:26.598Z,76.86
2023-04-20T07:52:28.707Z,76.14
2023-04-20T07:55:30.832Z,76.02
2023-04-20T07:58:32.977Z,75.49
2023-04-20T08:01:37.185Z,75.66
2023-04-20T08:04:39.631Z,76.18
2023-04-20T08:07:41.942Z,76.22
2023-04-20T08:10:43.998Z,75.08
2023-04-20T08:13:46.150Z,74.87
2023-04-20T08:16:48.304Z,75.16
2023-04-20T08:19:50.434Z,74.79
2023-04-20T08:22:53.467Z,75.96
2023-04-20T08:25:55.778Z,73.30
2023-04-20T08:28:58.104Z,72.94
2023-04-20T08:32:00.266Z,72.94
2023-04-20T08:35:02.444Z,72.92
2023-04-20T08:38:04.591Z,73.16
2023-04-20T08:41:06.944Z,72.78
2023-04-20T08:44:09.117Z,72.20
2023-04-20T08:47:12.188Z,72.34
2023-04-20T08:50:16.058Z,71.39
2023-04-20T08:53:18.232Z,71.05
2023-04-20T08:56:20.381Z,70.72
2023-04-20T08:59:22.680Z,67.08
2023-04-20T09:02:24.927Z,67.97
2023-04-20T09:05:29.171Z,69.06
2023-04-20T09:08:42.552Z,67.96
2023-04-20T09:11:45.439Z,67.15
2023-04-20T09:14:48.821Z,67.10
2023-04-20T09:17:51.135Z,68.00
2023-04-20T09:20:53.200Z,67.44
2023-04-20T09:24:03.834Z,67.85
2023-04-20T09:27:16.638Z,67.17
2023-04-20T09:30:18.752Z,64.43
2023-04-20T09:33:27.801Z,63.76
2023-04-20T09:36:42.443Z,63.88
2023-04-20T09:39:46.046Z,62.59
2023-04-20T09:42:50.226Z,62.76
2023-04-20T09:45:52.610Z,60.72
2023-04-20T09:48:55.512Z,61.85
2023-04-20T09:51:58.769Z,62.15
2023-04-20T09:55:01.092Z,61.91
2023-04-20T09:58:05.275Z,59.83
2023-04-20T10:01:11.274Z,61.98
2023-04-20T10:04:15.008Z,61.83
2023-04-20T10:07:24.755Z,58.82
2023-04-20T10:10:27.280Z,59.71
2023-04-20T10:13:34.249Z,59.59
2023-04-20T10:16:36.491Z,60.79
2023-04-20T10:19:44.103Z,61.05
2023-04-20T10:22:46.653Z,62.24
2023-04-20T10:26:00.065Z,60.02
2023-04-20T10:29:02.114Z,60.27
2023-04-20T10:32:05.012Z,60.63
2023-04-20T10:35:10.709Z,59.23
2023-04-20T10:38:12.793Z,58.17
2023-04-20T10:41:14.904Z,56.53
2023-04-20T10:44:17.159Z,55.09
2023-04-20T10:47:31.735Z,56.16
2023-04-20T10:50:33.961Z,57.61
2023-04-20T10:53:36.236Z,57.65
2023-04-20T10:56:43.391Z,57.24
2023-04-20T10:59:47.038Z,57.40
2023-04-20T11:02:58.255Z,56.81
2023-04-20T11:06:04.329Z,54.88
2023-04-20T11:09:26.528Z,58.04
2023-04-20T11:12:39.722Z,54.78
2023-04-20T11:15:42.064Z,54.58
2023-04-20T11:18:51.914Z,53.03
2023-04-20T11:21:55.090Z,55.07
2023-04-20T11:25:07.658Z,52.48
2023-04-20T11:28:10.001Z,53.84
2023-04-20T11:31:18.931Z,52.21
2023-04-20T11:34:22.591Z,52.92
2023-04-20T11:37:24.763Z,51.80
2023-04-20T11:40:28.510Z,53.96
2023-04-20T11:43:32.657Z,54.14
2023-04-20T11:46:37.427Z,52.91
2023-04-20T11:49:39.888Z,53.20
2023-04-20T11:52:41.993Z,53.88
2023-04-20T11:55:44.269Z,53.92
2023-04-20T11:58:46.596Z,53.15
2023-04-20T12:01:48.730Z,51.92
2023-04-20T12:04:51.015Z,52.00
2023-04-20T12:07:53.271Z,52.00
2023-04-20T12:10:57.966Z,51.53
2023-04-20T12:14:02.384Z,50.23
2023-04-20T12:17:05.263Z,50.22
2023-04-20T12:20:09.046Z,50.17
2023-04-20T12:23:11.411Z,48.66
2023-04-20T12:26:13.651Z,49.32
2023-04-20T12:29:16.930Z,49.95
2023-04-20T12:32:19.615Z,49.92
2023-04-20T12:35:22.012Z,50.72
2023-04-20T12:38:24.319Z,51.32
2023-04-20T12:41:26.576Z,50.67
2023-04-20T12:44:28.822Z,50.20
2023-04-20T12:47:31.712Z,50.35
2023-04-20T12:50:34.050Z,50.52
2023-04-20T12:53:36.301Z,51.42
2023-04-20T12:56:44.306Z,51.41
2023-04-20T12:59:50.362Z,50.71
2023-04-20T13:02:54.868Z,49.62
2023-04-20T13:05:57.210Z,51.18
2023-04-20T13:09:01.720Z,50.37
2023-04-20T13:12:04.468Z,51.16
2023-04-20T13:15:11.327Z,52.23
2023-04-20T13:18:15.786Z,52.88
2023-04-20T13:21:18.107Z,52.07
2023-04-20T13:24:20.499Z,52.84
2023-04-20T13:27:22.919Z,52.65
2023-04-20T13:30:26.213Z,52.22
2023-04-20T13:33:28.592Z,51.57
2023-04-20T13:36:32.987Z,51.87
2023-04-20T13:39:35.323Z,52.61
2023-04-20T13:42:37.778Z,51.88
2023-04-20T13:45:40.283Z,52.83
2023-04-20T13:48:43.581Z,53.29
2023-04-20T13:51:45.975Z,53.11
2023-04-20T13:54:48.266Z,54.57
2023-04-20T13:57:51.009Z,52.89
2023-04-20T14:00:53.385Z,52.42
2023-04-20T14:03:55.980Z,52.69
2023-04-20T14:06:58.205Z,53.97
2023-04-20T14:10:00.440Z,53.57
2023-04-20T14:13:02.530Z,53.78
2023-04-20T14:16:13.910Z,52.87
2023-04-20T14:19:16.224Z,51.99
2023-04-20T14:22:18.486Z,52.80
2023-04-20T14:25:20.860Z,53.38
2023-04-20T14:28:22.992Z,52.13
2023-04-20T14:31:25.205Z,51.14
2023-04-20T14:34:27.403Z,51.90
2023-04-20T14:37:29.462Z,51.52
2023-04-20T14:40:32.233Z,52.73
2023-04-20T14:43:35.804Z,51.61
2023-04-20T14:46:42.570Z,51.04
2023-04-20T14:49:45.072Z,52.30
2023-04-20T14:52:47.288Z,53.20
2023-04-20T14:55:49.531Z,51.99
2023-04-20T14:58:51.683Z,51.55
2023-04-20T15:02:02.369Z,52.10
2023-04-20T15:05:09.916Z,53.42
2023-04-20T15:08:13.066Z,53.61
2023-04-20T15:11:15.164Z,53.63
2023-04-20T15:14:17.619Z,54.61
2023-04-20T15:17:19.861Z,54.15
2023-04-20T15:20:22.072Z,53.91
2023-04-20T15:23:24.554Z,52.89
2023-04-20T15:26:26.748Z,54.86
2023-04-20T15:29:29.245Z,54.16
2023-04-20T15:32:33.973Z,52.50
2023-04-20T15:35:36.169Z,53.32
2023-04-20T15:38:38.344Z,54.51
2023-04-20T15:41:40.660Z,54.09
2023-04-20T15:44:42.811Z,55.27
2023-04-20T15:47:45.180Z,53.55
2023-04-20T15:50:53.792Z,54.58
2023-04-20T15:53:56.257Z,54.01
2023-04-20T15:56:58.481Z,54.49
2023-04-20T16:00:00.850Z,56.56
2023-04-20T16:03:03.333Z,55.00
2023-04-20T16:06:06.508Z,57.50
2023-04-20T16:09:09.360Z,57.99
2023-04-20T16:12:11.594Z,56.98
2023-04-20T16:15:13.777Z,55.18
2023-04-20T16:18:16.323Z,55.50
2023-04-20T16:21:18.882Z,55.96
2023-04-20T16:24:21.346Z,56.07
2023-04-20T16:27:23.602Z,57.54
2023-04-20T16:30:25.952Z,57.68
2023-04-20T16:33:28.201Z,57.38
2023-04-20T16:36:30.517Z,57.88
2023-04-20T16:39:33.155Z,58.83
2023-04-20T16:42:35.818Z,60.31
2023-04-20T16:45:40.243Z,59.95
2023-04-20T16:48:42.794Z,60.34
2023-04-20T16:51:45.076Z,58.86
2023-04-20T16:54:47.302Z,59.76
2023-04-20T16:57:49.862Z,60.11
2023-04-20T17:00:52.225Z,61.00
2023-04-20T17:03:54.683Z,63.39
2023-04-20T17:06:57.223Z,64.11
2023-04-20T17:09:59.706Z,65.73
2023-04-20T17:13:01.836Z,66.05
2023-04-20T17:16:04.293Z,66.63
2023-04-20T17:19:06.658Z,67.06
2023-04-20T17:22:08.962Z,67.48
2023-04-20T17:25:11.159Z,67.85
2023-04-20T17:28:14.579Z,68.64
2023-04-20T17:31:17.450Z,68.83
2023-04-20T17:34:20.289Z,69.59
2023-04-20T17:37:23.412Z,71.20
2023-04-20T17:40:26.330Z,71.25
2023-04-20T17:43:28.438Z,72.20
2023-04-20T17:46:30.971Z,72.53
2023-04-20T17:49:35.534Z,73.00
2023-04-20T17:52:37.751Z,73.82
2023-04-20T17:55:40.153Z,73.78
2023-04-20T17:58:42.749Z,73.84
2023-04-20T18:01:45.320Z,75.17
2023-04-20T18:04:47.843Z,75.78
2023-04-20T18:07:50.776Z,75.73
2023-04-20T18:10:54.205Z,76.65
2023-04-20T18:13:56.544Z,77.49
2023-04-20T18:16:58.988Z,78.00
2023-04-20T18:20:02.830Z,77.63
2023-04-20T18:23:05.593Z,77.96
2023-04-20T18:26:10.919Z,78.76
2023-04-20T18:29:13.201Z,79.22
2023-04-20T18:32:17.199Z,79.40
2023-04-20T18:35:21.772Z,79.39
2023-04-20T18:38:24.048Z,79.85
2023-04-20T18:41:28.146Z,80.34
2023-04-20T18:44:31.822Z,79.88
2023-04-20T18:47:35.472Z,80.42
2023-04-20T18:50:38.394Z,81.10
2023-04-20T18:53:42.607Z,81.03
2023-04-20T18:56:45.473Z,81.52
2023-04-20T18:59:48.466Z,81.39
2023-04-20T19:02:51.732Z,82.20
2023-04-20T19:05:55.318Z,82.04
2023-04-20T19:08:58.057Z,82.50
2023-04-20T19:12:04.007Z,82.68
2023-04-20T19:15:09.361Z,82.71
2023-04-20T19:18:12.455Z,83.15
2023-04-20T19:21:18.466Z,83.41
2023-04-20T19:24:23.155Z,83.62
2023-04-20T19:27:25.868Z,83.20
2023-04-20T19:30:28.596Z,82.91
2023-04-20T19:33:31.571Z,83.46
2023-04-20T19:36:34.995Z,83.97
2023-04-20T19:39:38.159Z,83.66
2023-04-20T19:42:41.610Z,83.89
2023-04-20T19:45:45.648Z,84.03
2023-04-20T19:48:48.580Z,84.02
2023-04-20T19:51:51.141Z,84.49
2023-04-20T19:54:53.909Z,84.69
2023-04-20T19:57:56.693Z,85.16
2023-04-20T20:01:00.694Z,84.85
2023-04-20T20:04:03.205Z,85.13
2023-04-20T20:07:05.836Z,85.31
2023-04-20T20:10:08.973Z,85.47
2023-04-20T20:13:12.055Z,85.47
2023-04-20T20:16:17.222Z,85.65
2023-04-20T20:19:22.202Z,86.04
2023-04-20T20:22:24.377Z,86.04
2023-04-20T20:25:26.818Z,86.04
2023-04-20T20:28:29.570Z,85.98
2023-04-20T20:31:32.302Z,86.27
2023-04-20T20:34:34.493Z,86.28
2023-04-20T20:37:37.269Z,86.67
2023-04-20T20:40:40.422Z,86.67
2023-04-20T20:43:42.791Z,86.44
2023-04-20T20:46:44.931Z,86.70
2023-04-20T20:49:47.211Z,86.67
2023-04-20T20:52:49.908Z,86.79
2023-04-20T20:55:54.104Z,87.23
2023-04-20T20:58:56.264Z,87.42
2023-04-20T21:01:58.413Z,87.29
2023-04-20T21:05:00.888Z,87.74
2023-04-20T21:08:03.093Z,87.70
2023-04-20T21:11:05.209Z,87.67
2023-04-20T21:14:07.297Z,87.73
2023-04-20T21:17:09.374Z,87.97
2023-04-20T21:20:12.018Z,88.73
2023-04-20T21:23:14.405Z,88.50
2023-04-20T21:26:16.833Z,88.15
2023-04-20T21:29:19.243Z,87.60
2023-04-20T21:32:21.697Z,87.87
2023-04-20T21:35:24.346Z,88.69
2023-04-20T21:38:26.479Z,88.42
2023-04-20T21:41:29.992Z,88.32
2023-04-20T21:44:35.627Z,88.43
2023-04-20T21:47:37.803Z,88.19
2023-04-20T21:50:40.014Z,88.69
2023-04-20T21:53:42.240Z,88.42
2023-04-20T21:56:44.519Z,88.71
2023-04-20T21:59:46.658Z,88.84
2023-04-20T22:02:50.364Z,88.92
2023-04-20T22:05:53.134Z,89.04
2023-04-20T22:08:55.303Z,88.98
2023-04-20T22:11:57.844Z,89.11
2023-04-20T22:15:00.811Z,88.95
2023-04-20T22:18:04.488Z,88.97
2023-04-20T22:21:06.618Z,89.07
2023-04-20T22:24:08.805Z,89.41
2023-04-20T22:27:11.067Z,89.45
2023-04-20T22:30:13.435Z,89.81
2023-04-20T22:33:15.610Z,89.38
2023-04-20T22:36:18.659Z,89.40
2023-04-20T22:39:21.055Z,89.69
2023-04-20T22:42:23.376Z,89.92
2023-04-20T22:45:25.748Z,90.61
2023-04-20T22:48:28.806Z,90.38
2023-04-20T22:51:31.175Z,89.78
2023-04-20T22:54:33.494Z,89.32
2023-04-20T22:57:35.793Z,90.11
2023-04-20T23:00:37.979Z,89.96
2023-04-20T23:03:40.246Z,89.86
2023-04-20T23:06:45.382Z,90.36
2023-04-20T23:09:48.316Z,90.13
2023-04-20T23:12:50.457Z,89.84
2023-04-20T23:15:53.021Z,90.01
2023-04-20T23:18:55.079Z,90.23
2023-04-20T23:21:57.102Z,90.05
2023-04-20T23:24:59.127Z,90.27
2023-04-20T23:28:01.214Z,90.39
2023-04-20T23:31:03.329Z,90.22
2023-04-20T23:34:05.437Z,90.34
2023-04-20T23:37:07.492Z,90.91
2023-04-20T23:40:10.305Z,90.80
2023-04-20T23:43:12.390Z,90.50
2023-04-20T23:46:15.350Z,90.67
2023-04-20T23:49:17.848Z,91.21
2023-04-20T23:52:20.414Z,91.20
2023-04-20T23:55:22.671Z,90.81
2023-04-20T23:58:25.936Z,90.52
